Time;durP1;ratioP1;P1;durP2;ratioP2;P2;SDS_P1;SDS_P2;PMS_P1;PMS_P2;Temp;Humidity;BMP_temperature;BMP_pressure;BME280_temperature;BME280_humidity;BME280_pressure;Samples;Min_cycle;Max_cycle;Signal;HPM_P1;HPM_P2
2023/03/16 00:02:41;;;;;;;2.67;1.13;;;1.80;99.90;;;;;;20915937;28;20044;-77
2023/03/16 00:12:43;;;;;;;2.03;1.05;;;1.60;99.90;;;;;;20909975;28;20029;-76
2023/03/16 00:22:44;;;;;;;1.52;0.88;;;1.70;99.90;;;;;;20843563;28;20038;-76
2023/03/16 00:32:45;;;;;;;2.05;1.15;;;1.50;99.90;;;;;;20832898;28;20037;-76
2023/03/16 00:42:46;;;;;;;1.20;0.90;;;1.30;99.90;;;;;;20873225;28;20642;-76
2023/03/16 00:52:47;;;;;;;1.73;1.20;;;1.10;99.90;;;;;;20912212;28;20549;-77
2023/03/16 01:02:48;;;;;;;4.70;1.00;;;1.30;99.90;;;;;;20894345;28;20037;-77
2023/03/16 01:12:48;;;;;;;2.22;1.20;;;1.30;99.90;;;;;;20915748;28;20170;-77
2023/03/16 01:22:50;;;;;;;2.22;0.98;;;1.10;99.90;;;;;;20912023;28;20122;-77
2023/03/16 01:32:51;;;;;;;5.60;1.20;;;1.10;99.90;;;;;;20892233;28;20033;-77
2023/03/16 01:43:01;;;;;;;1.50;1.10;;;0.90;99.90;;;;;;20908389;28;20116;-77
2023/03/16 01:53:05;;;;;;;1.48;1.00;;;1.00;99.90;;;;;;20907680;28;20111;-76
2023/03/16 02:03:17;;;;;;;1.80;1.13;;;1.00;99.90;;;;;;20906593;28;20060;-77
2023/03/16 02:13:28;;;;;;;2.67;1.80;;;1.00;99.90;;;;;;20905920;28;20033;-76
2023/03/16 02:23:31;;;;;;;3.95;2.17;;;0.90;99.90;;;;;;20847399;28;20029;-77
2023/03/16 02:33:33;;;;;;;4.18;2.15;;;0.90;99.90;;;;;;20824153;28;20029;-76
2023/03/16 02:43:36;;;;;;;4.72;2.22;;;0.70;99.90;;;;;;20876498;28;20037;-77
2023/03/16 02:53:50;;;;;;;8.20;2.20;;;0.70;99.90;;;;;;20922775;28;20454;-76
2023/03/16 03:03:51;;;;;;;4.70;2.28;;;0.70;99.90;;;;;;20921405;28;20454;-76
2023/03/16 03:13:53;;;;;;;8.30;2.60;;;0.60;99.90;;;;;;20931338;28;20089;-77
2023/03/16 03:23:57;;;;;;;5.07;2.67;;;0.50;99.90;;;;;;21001081;28;20105;-77
2023/03/16 03:33:58;;;;;;;7.78;2.78;;;0.40;99.90;;;;;;21001792;28;20037;-76
2023/03/16 03:43:59;;;;;;;5.97;2.88;;;0.40;99.90;;;;;;20940109;28;20033;-77
2023/03/16 03:54:00;;;;;;;5.07;2.92;;;0.40;99.90;;;;;;20916402;28;20466;-76
2023/03/16 04:04:21;;;;;;;4.03;2.63;;;0.30;99.90;;;;;;20915973;28;20499;-76
2023/03/16 04:14:22;;;;;;;5.55;2.65;;;0.30;99.90;;;;;;20914604;28;20095;-76
2023/03/16 04:24:24;;;;;;;5.45;2.53;;;0.40;99.90;;;;;;20914173;28;20052;-76
2023/03/16 04:34:25;;;;;;;8.50;3.20;;;0.30;99.90;;;;;;20873245;28;20029;-76
2023/03/16 04:44:29;;;;;;;6.20;2.50;;;0.20;99.90;;;;;;20887823;28;20033;-76
2023/03/16 04:54:32;;;;;;;7.25;3.40;;;0.20;99.90;;;;;;20852984;28;20040;-76
2023/03/16 05:04:33;;;;;;;8.02;3.28;;;0.20;99.90;;;;;;20870981;28;20488;-76
2023/03/16 05:14:34;;;;;;;5.88;3.13;;;0.30;99.90;;;;;;20857763;28;20041;-76
2023/03/16 05:24:55;;;;;;;10.43;3.40;;;0.20;99.90;;;;;;20907488;28;20060;-78
2023/03/16 05:34:57;;;;;;;5.45;3.20;;;0.20;99.90;;;;;;20908430;28;20279;-76
2023/03/16 05:44:58;;;;;;;9.05;3.17;;;0.10;99.90;;;;;;20874254;28;20030;-77
2023/03/16 05:55:10;;;;;;;7.03;2.85;;;0.00;99.90;;;;;;20870579;28;20026;-78
2023/03/16 06:05:11;;;;;;;6.30;3.38;;;0.00;99.90;;;;;;20852628;28;20033;-75
2023/03/16 06:15:15;;;;;;;7.55;2.83;;;0.20;99.90;;;;;;20851331;28;20053;-76
2023/03/16 06:25:16;;;;;;;4.95;2.90;;;0.50;99.90;;;;;;20823169;28;20040;-76
2023/03/16 06:35:19;;;;;;;4.40;2.55;;;1.00;99.90;;;;;;20829864;28;20025;-77
2023/03/16 06:45:33;;;;;;;3.33;1.92;;;1.40;99.90;;;;;;20889113;28;20499;-75
2023/03/16 06:55:34;;;;;;;2.95;1.80;;;2.10;99.90;;;;;;20903074;28;20484;-76
2023/03/16 07:05:35;;;;;;;7.45;2.45;;;2.40;99.90;;;;;;20902309;28;20107;-76
2023/03/16 07:15:37;;;;;;;6.25;3.08;;;2.40;99.90;;;;;;20903394;28;20079;-76
2023/03/16 07:25:40;;;;;;;5.20;2.60;;;3.00;99.90;;;;;;20903155;28;20033;-76
2023/03/16 07:35:41;;;;;;;6.90;2.53;;;3.80;99.90;;;;;;20893473;28;20453;-76
2023/03/16 07:45:48;;;;;;;4.78;2.60;;;4.40;99.90;;;;;;20903405;28;20531;-76
2023/03/16 07:55:50;;;;;;;4.40;2.75;;;5.00;99.90;;;;;;20913152;28;20025;-76
2023/03/16 08:05:53;;;;;;;5.72;2.67;;;5.60;99.90;;;;;;20898003;28;20498;-76
2023/03/16 08:15:57;;;;;;;4.68;2.60;;;5.20;99.90;;;;;;20917733;28;20090;-76
2023/03/16 08:26:08;;;;;;;4.67;2.33;;;6.50;99.90;;;;;;20899140;28;20033;-78
2023/03/16 08:36:12;;;;;;;3.67;2.30;;;7.10;99.90;;;;;;20914029;28;20032;-75
2023/03/16 08:46:14;;;;;;;6.45;2.63;;;6.80;99.90;;;;;;20911896;28;20035;-77
2023/03/16 08:56:21;;;;;;;4.88;2.70;;;7.80;99.90;;;;;;20912116;28;20051;-76
2023/03/16 09:06:23;;;;;;;4.30;2.55;;;7.90;99.90;;;;;;20912606;28;20029;-76
2023/03/16 09:16:24;;;;;;;;;;;8.50;99.90;;;;;;20912418;28;20409;-76
2023/03/16 09:26:25;;;;;;;4.93;2.45;;;8.50;99.90;;;;;;20911279;28;19912;-76
2023/03/16 09:36:26;;;;;;;4.83;2.27;;;9.10;99.90;;;;;;20909396;28;20033;-74
2023/03/16 09:46:28;;;;;;;4.33;2.20;;;9.50;99.90;;;;;;20909599;28;20371;-74
2023/03/16 09:56:32;;;;;;;7.90;2.33;;;10.50;99.90;;;;;;20909222;28;20040;-75
2023/03/16 10:06:41;;;;;;;8.98;2.60;;;10.30;99.90;;;;;;20907964;28;20487;-75
2023/03/16 10:17:00;;;;;;;3.78;2.25;;;10.70;99.90;;;;;;20832930;28;20038;-75
2023/03/16 10:27:02;;;;;;;4.05;2.10;;;11.50;99.90;;;;;;20840570;28;20033;-75
2023/03/16 10:37:04;;;;;;;3.63;2.28;;;12.20;99.90;;;;;;20827947;28;20510;-75
2023/03/16 10:47:07;;;;;;;4.43;2.55;;;11.70;99.90;;;;;;20824879;28;20036;-76
2023/03/16 10:57:22;;;;;;;4.88;1.98;;;11.30;99.90;;;;;;20839863;28;20026;-75
2023/03/16 11:07:24;;;;;;;3.28;2.20;;;12.30;99.90;;;;;;20832489;28;20048;-75
2023/03/16 11:17:35;;;;;;;5.95;2.10;;;12.20;99.90;;;;;;20838842;28;20176;-76
2023/03/16 11:27:48;;;;;;;5.40;1.97;;;11.60;99.90;;;;;;20838388;28;20052;-74
2023/03/16 11:38:14;;;;;;;5.60;2.20;;;13.10;99.90;;;;;;20840244;28;20053;-75
2023/03/16 11:48:25;;;;;;;4.20;2.25;;;13.30;99.90;;;;;;20918859;28;20395;-76
2023/03/16 11:58:44;;;;;;;3.80;2.22;;;13.10;99.90;;;;;;20919136;28;20116;-74
2023/03/16 12:09:09;;;;;;;4.22;1.85;;;14.10;99.90;;;;;;20917204;28;20109;-74
2023/03/16 12:19:18;;;;;;;4.45;1.90;;;15.30;99.90;;;;;;20915255;28;20033;-75
2023/03/16 12:29:42;;;;;;;2.97;2.03;;;15.60;99.20;;;;;;20914509;28;20041;-75
2023/03/16 12:39:52;;;;;;;2.97;1.80;;;16.40;97.20;;;;;;20908066;28;20551;-75
2023/03/16 12:49:55;;;;;;;2.88;1.98;;;16.20;96.70;;;;;;20914140;28;20036;-76
2023/03/16 12:59:59;;;;;;;3.47;1.70;;;15.80;96.80;;;;;;20902431;28;20079;-76
2023/03/16 13:10:08;;;;;;;3.22;1.63;;;15.70;97.70;;;;;;20909648;28;20582;-75
2023/03/16 13:20:12;;;;;;;5.38;2.03;;;15.70;96.30;;;;;;20913614;28;20485;-77
2023/03/16 13:30:18;;;;;;;5.68;2.05;;;16.70;96.20;;;;;;20911409;28;20025;-77
2023/03/16 13:40:22;;;;;;;6.45;2.15;;;16.40;96.10;;;;;;20911361;28;20043;-77
2023/03/16 13:50:23;;;;;;;4.95;1.73;;;16.00;96.10;;;;;;20917870;28;20124;-77
2023/03/16 14:00:31;;;;;;;3.63;1.70;;;15.80;95.80;;;;;;20914207;28;20115;-77
2023/03/16 14:10:34;;;;;;;4.22;2.00;;;14.80;95.10;;;;;;20912405;28;20475;-77
2023/03/16 14:20:35;;;;;;;3.83;1.77;;;14.10;96.70;;;;;;20909996;28;20120;-77
2023/03/16 14:30:36;;;;;;;4.17;1.90;;;15.20;96.50;;;;;;20924174;28;20361;-78
2023/03/16 14:40:36;;;;;;;5.67;1.67;;;15.60;95.70;;;;;;20883419;28;20106;-76
2023/03/16 14:50:38;;;;;;;4.80;2.27;;;15.30;95.20;;;;;;20861590;28;20036;-78
2023/03/16 15:00:40;;;;;;;7.18;1.75;;;15.80;95.10;;;;;;20856668;28;20033;-78
2023/03/16 15:10:42;;;;;;;4.80;1.55;;;15.80;94.30;;;;;;20881963;28;20457;-77
2023/03/16 15:20:44;;;;;;;3.28;2.10;;;16.40;94.00;;;;;;20898685;28;20144;-77
2023/03/16 15:30:56;;;;;;;4.53;2.00;;;15.70;93.00;;;;;;20926116;28;20577;-78
2023/03/16 15:40:57;;;;;;;3.20;1.60;;;14.20;95.30;;;;;;20947381;28;20044;-77
2023/03/16 15:51:15;;;;;;;6.18;1.90;;;13.40;96.50;;;;;;20926554;28;20045;-76
2023/03/16 16:01:24;;;;;;;7.32;2.00;;;13.20;97.00;;;;;;20853177;28;20087;-78
2023/03/16 16:11:27;;;;;;;2.67;1.88;;;12.60;98.10;;;;;;20897906;28;20029;-76
2023/03/16 16:21:29;;;;;;;3.50;1.65;;;12.40;98.50;;;;;;20895604;28;20549;-77
2023/03/16 16:31:30;;;;;;;4.45;1.83;;;12.10;99.80;;;;;;20910220;28;20144;-77
2023/03/16 16:41:34;;;;;;;5.63;2.00;;;11.80;99.90;;;;;;20867623;28;20140;-77
2023/03/16 16:51:35;;;;;;;3.10;1.70;;;11.60;99.90;;;;;;20887731;28;20520;-77
2023/03/16 17:01:35;;;;;;;3.27;1.60;;;11.20;99.90;;;;;;20833162;28;20124;-77
2023/03/16 17:11:37;;;;;;;7.23;1.43;;;11.00;99.90;;;;;;20878157;28;20040;-77
2023/03/16 17:21:37;;;;;;;3.78;1.70;;;10.70;99.90;;;;;;20841063;28;20044;-76
2023/03/16 17:31:41;;;;;;;2.30;1.50;;;10.40;99.90;;;;;;20832557;28;20033;-77
2023/03/16 17:41:42;;;;;;;4.32;1.75;;;10.20;99.90;;;;;;20872855;28;20491;-77
2023/03/16 17:51:44;;;;;;;2.63;1.30;;;9.60;99.90;;;;;;20894018;28;20036;-78
2023/03/16 18:01:46;;;;;;;3.25;1.60;;;9.20;99.90;;;;;;20924978;28;20163;-77
2023/03/16 18:11:50;;;;;;;5.43;2.30;;;9.30;99.90;;;;;;20922441;28;20029;-78
2023/03/16 18:21:52;;;;;;;7.35;1.60;;;9.00;99.90;;;;;;20863025;28;20025;-78
2023/03/16 18:31:55;;;;;;;6.57;1.80;;;8.80;99.90;;;;;;20925801;28;20041;-78
2023/03/16 18:41:55;;;;;;;3.67;1.48;;;8.70;99.90;;;;;;20925033;28;20025;-78
2023/03/16 18:51:56;;;;;;;4.60;1.67;;;8.50;99.90;;;;;;20923611;28;20036;-77
2023/03/16 19:01:58;;;;;;;3.30;1.70;;;8.20;99.90;;;;;;20923566;28;20041;-76
2023/03/16 19:11:59;;;;;;;4.55;2.08;;;8.20;99.90;;;;;;20916617;28;20056;-77
2023/03/16 19:22:20;;;;;;;5.15;2.42;;;8.00;99.90;;;;;;20903250;28;20029;-77
2023/03/16 19:32:21;;;;;;;4.63;2.22;;;8.00;99.90;;;;;;20948388;28;20411;-78
2023/03/16 19:42:27;;;;;;;5.85;2.60;;;7.50;99.90;;;;;;20887916;28;20058;-76
2023/03/16 19:52:30;;;;;;;7.47;2.42;;;7.30;99.90;;;;;;20912323;28;20033;-75
2023/03/16 20:02:39;;;;;;;4.07;2.28;;;7.00;99.90;;;;;;20931352;28;20132;-76
2023/03/16 20:12:41;;;;;;;4.50;2.67;;;6.60;99.90;;;;;;20930411;28;20029;-77
2023/03/16 20:22:41;;;;;;;5.68;2.45;;;6.30;99.90;;;;;;20862099;28;20034;-77
2023/03/16 20:32:42;;;;;;;6.50;2.20;;;6.50;99.90;;;;;;20861535;28;20040;-76
2023/03/16 20:42:44;;;;;;;4.93;2.00;;;6.80;99.90;;;;;;20927156;28;20329;-76
2023/03/16 20:52:44;;;;;;;6.57;2.67;;;6.60;99.90;;;;;;20929320;28;20460;-77
2023/03/16 21:02:46;;;;;;;4.60;2.47;;;6.60;99.90;;;;;;20925007;28;20029;-77
2023/03/16 21:12:53;;;;;;;4.43;2.10;;;6.60;99.90;;;;;;20929343;28;20283;-77
2023/03/16 21:22:55;;;;;;;4.65;2.25;;;6.70;99.90;;;;;;20929337;28;20556;-77
2023/03/16 21:32:57;;;;;;;4.05;2.20;;;6.50;99.90;;;;;;20913392;28;20029;-77
2023/03/16 21:42:59;;;;;;;4.72;1.63;;;6.40;99.90;;;;;;20895014;28;20503;-77
2023/03/16 21:53:00;;;;;;;3.95;2.00;;;6.40;99.90;;;;;;20932942;28;20039;-78
2023/03/16 22:03:02;;;;;;;4.28;2.10;;;6.10;99.90;;;;;;20932935;28;20033;-77
2023/03/16 22:13:03;;;;;;;4.53;2.42;;;5.90;99.90;;;;;;20928226;28;20033;-77
2023/03/16 22:23:04;;;;;;;;;;;5.90;99.90;;;;;;20926260;28;20025;-77
2023/03/16 22:33:06;;;;;;;3.97;1.93;;;5.70;99.90;;;;;;20935061;28;19920;-77
2023/03/16 22:43:12;;;;;;;4.65;2.28;;;5.50;99.90;;;;;;20913987;28;20037;-77
2023/03/16 22:53:36;;;;;;;3.85;2.03;;;5.20;99.90;;;;;;20916159;28;20043;-77
2023/03/16 23:03:37;;;;;;;4.88;2.15;;;5.20;99.90;;;;;;20925899;28;20037;-78
2023/03/16 23:13:38;;;;;;;;;;;5.10;99.90;;;;;;20943945;28;20087;-77
2023/03/16 23:23:40;;;;;;;3.17;2.10;;;5.00;99.90;;;;;;20928805;28;19922;-77
2023/03/16 23:33:41;;;;;;;;;;;4.80;99.90;;;;;;20922431;28;20021;-77
2023/03/16 23:43:44;;;;;;;4.63;2.10;;;4.80;99.90;;;;;;20926342;28;19919;-77
2023/03/16 23:53:45;;;;;;;5.35;2.38;;;4.80;99.90;;;;;;20928350;28;20159;-77
